Data for 06/14/2018

Time Sea-Level Adjusted Pressure Absolute Pressure Temperature Relative Humidity Dew Point   
(mb) (inHg) (mb) (inHg) (C) (F) (%) (C) (F)
00:05 1011 29.85 841 24.83 15.9 60.7 39 2.2 36
00:10 1011 29.85 840 24.81 15.7 60.2 40 2.3 36.1
00:15 1011 29.85 840 24.81 15.3 59.6 43 2.9 37.2
00:20 1011 29.85 840 24.81 14.8 58.7 45 3 37.4
00:25 1011 29.85 840 24.81 14.6 58.3 45 2.9 37.2
00:30 1011 29.85 840 24.81 14.6 58.3 45 2.9 37.1
00:35 1011 29.85 840 24.81 14.6 58.4 44 2.7 36.9
00:40 1011 29.85 840 24.81 14.7 58.4 44 2.8 37
00:45 1011 29.85 840 24.81 14.7 58.5 43 2.4 36.3
00:50 1011 29.85 840 24.81 15.1 59.1 42 2.2 36
00:55 1011 29.85 840 24.81 15.2 59.4 42 2.5 36.5
01:00 1011 29.85 840 24.81 15 58.9 43 2.7 36.8
01:05 1010 29.83 840 24.81 14.7 58.4 44 2.6 36.6
01:10 1010 29.83 840 24.81 14.5 58.1 46 3 37.3
01:15 1010 29.83 840 24.81 14.1 57.3 47 2.9 37.2
01:20 1010 29.83 840 24.81 13.9 56.9 48 3 37.4
01:25 1010 29.83 840 24.81 13.7 56.7 48 3 37.3
01:30 1010 29.83 839 24.78 13.7 56.6 48 3 37.4
01:35 1010 29.83 839 24.78 13.8 56.8 47 2.7 36.9
01:40 1010 29.83 839 24.78 13.9 57.1 47 2.9 37.2
01:45 1010 29.83 839 24.78 13.9 57 47 2.9 37.1
01:50 1010 29.83 840 24.81 13.9 57 47 2.9 37.2
01:55 1010 29.83 840 24.81 14 57.2 46 2.7 36.9
02:00 1010 29.83 840 24.81 14 57.2 46 2.6 36.7
02:05 1010 29.83 840 24.81 14 57.3 46 2.6 36.6
02:10 1011 29.85 840 24.81 13.9 57 47 2.8 37
02:15 1010 29.83 840 24.81 13.7 56.6 47 2.6 36.7
02:20 1011 29.85 840 24.81 13.7 56.6 47 2.5 36.5
02:25 1011 29.85 840 24.81 13.6 56.4 49 3.2 37.7
02:30 1011 29.85 840 24.81 13 55.5 51 3.2 37.8
02:35 1011 29.85 840 24.81 12.5 54.5 53 3.4 38
02:40 1010 29.83 840 24.81 12.1 53.7 54 3.2 37.8
02:45 1010 29.83 840 24.81 11.9 53.4 55 3.2 37.8
02:50 1010 29.83 840 24.81 12 53.6 53 2.8 37.1
02:55 1011 29.85 840 24.81 12.3 54.2 52 2.7 36.9
03:00 1011 29.85 840 24.81 12.6 54.8 49 2.4 36.3
03:05 1011 29.85 840 24.81 13.1 55.6 49 2.6 36.7
03:10 1011 29.85 840 24.81 13 55.4 50 2.9 37.1
03:15 1011 29.85 840 24.81 12.8 55 51 3.1 37.5
03:20 1011 29.85 840 24.81 12.5 54.5 52 2.9 37.2
03:25 1011 29.85 840 24.81 12.8 55 51 3 37.4
03:30 1011 29.85 840 24.81 12.6 54.7 52 3.1 37.5
03:35 1010 29.83 840 24.81 12.3 54.2 53 3.1 37.6
03:40 1010 29.83 840 24.81 12.3 54.1 52 2.8 37.1
03:45 1010 29.83 840 24.81 12.5 54.6 51 2.7 36.9
03:50 1010 29.83 840 24.81 12.9 55.2 50 2.7 36.9
03:55 1011 29.85 840 24.81 13 55.3 51 3.1 37.5
04:00 1011 29.85 840 24.81 12.2 54 57 4 39.2
04:05 1011 29.85 840 24.81 11.3 52.4 57 3.1 37.6
04:10 1011 29.85 840 24.81 11.4 52.6 57 3.4 38.1
04:15 1011 29.85 840 24.81 11.4 52.6 56 3 37.3
04:20 1011 29.85 840 24.81 11.6 52.8 56 3 37.5
04:25 1011 29.85 840 24.81 11.7 53.1 54 2.7 36.9
04:30 1011 29.85 840 24.81 12 53.5 54 3.1 37.6
04:35 1011 29.85 840 24.81 11.7 53.1 56 3.2 37.7
04:40 1011 29.85 840 24.81 11.5 52.7 56 3.1 37.5
04:45 1011 29.85 840 24.81 11.6 52.9 56 3.3 38
04:50 1011 29.85 840 24.81 11.5 52.7 56 3.2 37.7
04:55 1011 29.85 840 24.81 11.5 52.7 56 3 37.4
05:00 1011 29.85 840 24.81 11.7 53.1 55 3 37.4
05:05 1011 29.85 840 24.81 11.9 53.5 54 3 37.3
05:10 1011 29.85 840 24.81 12.1 53.8 54 3.1 37.5
05:15 1011 29.85 840 24.81 12.5 54.5 51 2.8 37
05:20 1011 29.85 840 24.81 12.9 55.3 50 2.8 37.1
05:25 1011 29.85 840 24.81 13.4 56.1 48 2.7 36.9
05:30 1011 29.85 840 24.81 14 57.1 48 3.1 37.5
05:35 1011 29.85 840 24.81 13.5 56.4 50 3.3 37.9
05:40 1011 29.85 840 24.81 13.5 56.3 50 3.2 37.8
05:45 1011 29.85 840 24.81 13.4 56.1 50 3.2 37.8
05:50 1010 29.83 840 24.81 13.3 55.9 51 3.5 38.2
05:55 1011 29.85 840 24.81 13.3 56 51 3.4 38
06:00 1011 29.85 840 24.81 13.6 56.4 49 3.2 37.8
06:05 1011 29.85 840 24.81 13.7 56.7 49 3.3 38
06:10 1011 29.85 840 24.81 14.1 57.4 47 3.2 37.7
06:15 1011 29.85 840 24.81 14.4 57.9 47 3.3 37.9
06:20 1011 29.85 840 24.81 14.8 58.6 45 3.2 37.7
06:25 1011 29.85 840 24.81 15.3 59.5 47 4.3 39.7
06:30 1011 29.85 840 24.81 16 60.8 50 5.6 42.1
06:35 1011 29.85 840 24.81 16 60.7 50 5.6 42.1
06:40 1011 29.85 840 24.81 15.8 60.4 48 4.8 40.6
06:45 1011 29.85 840 24.81 16 60.8 46 4.4 39.9
06:50 1011 29.85 840 24.81 16.4 61.5 43 4 39.1
06:55 1011 29.85 840 24.81 16.4 61.5 43 3.8 38.9
07:00 1011 29.85 840 24.81 16.8 62.2 40 3.4 38.1
07:05 1011 29.85 840 24.81 17.7 63.9 39 3.7 38.7
07:10 1011 29.85 840 24.81 18.2 64.8 37 3.6 38.5
07:15 1011 29.85 840 24.81 18.2 64.7 46 6.3 43.4
07:20 1012 29.88 841 24.83 16.3 61.4 52 6.7 44
07:25 1012 29.88 841 24.83 15.5 60 53 6 42.8
07:30 1012 29.88 841 24.83 15.3 59.5 51 5.4 41.7
07:35 1012 29.88 841 24.83 15.8 60.4 49 5.3 41.5
07:40 1012 29.88 841 24.83 15.9 60.6 48 5 41.1
07:45 1012 29.88 841 24.83 16.2 61.2 46 4.7 40.4
07:50 1012 29.88 841 24.83 16.8 62.2 43 4.4 39.9
07:55 1012 29.88 841 24.83 17.1 62.7 43 4.5 40.1
08:00 1012 29.88 841 24.83 17.2 62.9 44 4.9 40.8
08:05 1012 29.88 841 24.83 16.8 62.3 44 4.7 40.5
08:10 1012 29.88 841 24.83 16.5 61.7 46 4.8 40.7
08:15 1012 29.88 841 24.83 16.7 62.1 46 5.2 41.3
08:20 1012 29.88 841 24.83 17 62.5 44 4.6 40.3
08:25 1012 29.88 841 24.83 16.8 62.2 44 4.6 40.3
08:30 1012 29.88 841 24.83 17 62.6 42 4.1 39.3
08:35 1012 29.88 841 24.83 17.7 63.9 42 4.8 40.7
08:40 1012 29.88 841 24.83 17.8 64 39 3.8 38.9
08:45 1012 29.88 841 24.83 17.9 64.1 41 4.5 40.1
08:50 1012 29.88 841 24.83 17.8 64 41 4.6 40.3
08:55 1012 29.88 841 24.83 17.9 64.2 39 3.9 39.1
09:00 1012 29.88 841 24.83 18.1 64.6 41 4.9 40.8
09:05 1012 29.88 841 24.83 18.4 65.2 41 4.9 40.9
09:10 1012 29.88 841 24.83 18.2 64.8 42 5.1 41.2
09:15 1012 29.88 841 24.83 17.9 64.2 43 5.2 41.4
09:20 1012 29.88 841 24.83 17.6 63.7 43 4.9 40.9
09:25 1012 29.88 841 24.83 18.8 65.9 40 5 41.1
09:30 1012 29.88 841 24.83 19.6 67.4 36 4.5 40
09:35 1012 29.88 841 24.83 19.7 67.5 37 4.8 40.7
09:40 1012 29.88 841 24.83 19.9 67.7 37 4.9 40.7
09:45 1012 29.88 841 24.83 19.6 67.2 38 5.1 41.1
09:50 1012 29.88 841 24.83 19.5 67.1 37 4.6 40.4
09:55 1012 29.88 842 24.86 19.9 67.8 37 4.8 40.6
10:00 1012 29.88 842 24.86 20 67.9 38 5.2 41.4
10:05 1012 29.88 842 24.86 19.8 67.6 38 5.2 41.3
10:10 1012 29.88 842 24.86 19.8 67.6 38 5.2 41.3
10:15 1013 29.91 842 24.86 19.8 67.7 38 5.3 41.6
10:20 1013 29.91 842 24.86 19.9 67.8 38 5.1 41.3
10:25 1013 29.91 842 24.86 20.3 68.5 36 5 41
10:30 1013 29.91 842 24.86 20.8 69.4 36 5.3 41.6
10:35 1013 29.91 842 24.86 20.9 69.5 36 5.5 41.9
10:40 1012 29.88 842 24.86 21.1 70 35 5.1 41.2
10:45 1012 29.88 842 24.86 21.7 71 34 5.3 41.5
10:50 1013 29.91 842 24.86 21.5 70.7 36 6.2 43.1
10:55 1013 29.91 842 24.86 21.6 70.8 33 5 41
11:00 1013 29.91 842 24.86 21.6 70.8 34 5.4 41.8
11:05 1013 29.91 842 24.86 21.8 71.2 34 5.3 41.6
11:10 1013 29.91 842 24.86 21.8 71.2 34 5.4 41.7
11:15 1013 29.91 842 24.86 21.2 70.2 34 4.9 40.8
11:20 1013 29.91 842 24.86 21 69.7 34 4.6 40.3
11:25 1013 29.91 842 24.86 20.9 69.6 34 4.7 40.4
11:30 1013 29.91 842 24.86 21.5 70.8 33 4.8 40.6
11:35 1013 29.91 842 24.86 21.3 70.4 34 5 41
11:40 1013 29.91 842 24.86 21.6 70.9 33 4.8 40.7
11:45 1013 29.91 842 24.86 22.2 72 31 4.6 40.3
11:50 1013 29.91 842 24.86 22.4 72.3 31 4.7 40.5
11:55 1013 29.91 842 24.86 22.1 71.8 32 5 41
12:00 1013 29.91 842 24.86 22.3 72.1 31 4.6 40.2
12:05 1013 29.91 842 24.86 23 73.3 32 5.6 42.1
12:10 1013 29.91 842 24.86 22.2 72 35 6.3 43.3
12:15 1013 29.91 842 24.86 21.7 71.1 33 5 40.9
12:20 1013 29.91 842 24.86 21.3 70.4 33 4.8 40.6
12:25 1013 29.91 842 24.86 21.5 70.8 32 4.4 39.9
12:30 1013 29.91 842 24.86 21.4 70.5 31 3.8 38.8
12:35 1013 29.91 842 24.86 21.2 70.2 31 3.7 38.7
12:40 1013 29.91 842 24.86 21.3 70.4 32 4.2 39.5
12:45 1013 29.91 842 24.86 21.5 70.7 31 3.9 39
12:50 1013 29.91 842 24.86 21.5 70.6 33 4.6 40.3
12:55 1013 29.91 842 24.86 21.4 70.5 33 4.5 40
13:00 1013 29.91 842 24.86 20.7 69.2 33 4.1 39.4
13:05 1013 29.91 842 24.86 20.7 69.2 31 3.2 37.8
13:10 1013 29.91 842 24.86 21.5 70.6 32 4.1 39.4
13:15 1013 29.91 842 24.86 21.2 70.2 31 3.8 38.9
13:20 1013 29.91 842 24.86 21.5 70.7 32 4.2 39.6
13:25 1013 29.91 842 24.86 21.1 69.9 32 4 39.3
13:30 1013 29.91 842 24.86 21 69.7 33 4.4 40
13:35 1013 29.91 842 24.86 21 69.9 36 5.6 42.1
13:40 1013 29.91 842 24.86 20.7 69.3 37 5.5 41.9
13:45 1013 29.91 843 24.89 20.3 68.5 38 5.6 42.1
13:50 1013 29.91 842 24.86 20 68.1 37 5.2 41.3
13:55 1013 29.91 843 24.89 20.1 68.2 38 5.4 41.7
14:00 1013 29.91 842 24.86 20 67.9 38 5.4 41.7
14:05 1013 29.91 843 24.89 20 67.9 37 5.1 41.2
14:10 1013 29.91 842 24.86 20.1 68.2 37 5.2 41.4
14:15 1013 29.91 842 24.86 19.9 67.8 39 5.5 42
14:20 1013 29.91 842 24.86 19.7 67.4 39 5.6 42
14:25 1013 29.91 842 24.86 19.5 67.1 38 5.1 41.2
14:30 1013 29.91 843 24.89 19.4 66.9 38 4.9 40.8
14:35 1013 29.91 843 24.89 19.3 66.8 38 4.8 40.7
14:40 1013 29.91 843 24.89 19.4 66.9 38 4.8 40.7
14:45 1013 29.91 843 24.89 19.3 66.7 37 4.3 39.8
14:50 1013 29.91 843 24.89 19.2 66.6 37 4.2 39.6
14:55 1013 29.91 843 24.89 19.2 66.5 36 3.8 38.8
15:00 1013 29.91 843 24.89 19.2 66.5 36 4 39.3
15:05 1014 29.94 843 24.89 19.4 66.9 36 4 39.1
15:10 1014 29.94 843 24.89 19.3 66.7 36 4 39.2
15:15 1014 29.94 843 24.89 19.3 66.7 36 3.8 38.8
15:20 1014 29.94 843 24.89 18.9 66.1 39 5 40.9
15:25 1014 29.94 843 24.89 18.3 64.9 43 5.7 42.2
15:30 1014 29.94 843 24.89 18.1 64.6 47 6.9 44.4
15:35 1014 29.94 843 24.89 17.7 63.9 52 8 46.4
15:40 1014 29.94 843 24.89 16.7 62 65 10.2 50.3
15:45 1013 29.91 843 24.89 15.7 60.2 63 8.8 47.9
15:50 1014 29.94 843 24.89 15.4 59.8 64 8.7 47.6
15:55 1014 29.94 843 24.89 15.4 59.7 66 9.1 48.4
16:00 1014 29.94 843 24.89 15.4 59.6 67 9.2 48.6
16:05 1014 29.94 843 24.89 15.3 59.6 69 9.7 49.4
16:10 1014 29.94 843 24.89 15.2 59.3 75 10.8 51.5
16:15 1014 29.94 843 24.89 14.8 58.6 71 9.7 49.4
16:20 1014 29.94 843 24.89 14.7 58.4 71 9.4 49
16:25 1014 29.94 843 24.89 14.7 58.5 65 8.2 46.7
16:30 1014 29.94 843 24.89 15.1 59.1 66 8.7 47.7
16:35 1014 29.94 843 24.89 15 59 64 8.4 47.1
16:40 1013 29.91 843 24.89 15 58.9 65 8.6 47.4
16:45 1013 29.91 843 24.89 15 58.9 66 8.7 47.7
16:50 1013 29.91 843 24.89 15.1 59.3 63 8.3 46.9
16:55 1013 29.91 843 24.89 15.3 59.6 64 8.6 47.5
17:00 1013 29.91 843 24.89 15.5 59.9 64 8.8 47.9
17:05 1013 29.91 843 24.89 15.6 60.1 63 8.7 47.6
17:10 1013 29.91 843 24.89 15.7 60.3 62 8.5 47.3
17:15 1013 29.91 843 24.89 15.8 60.5 62 8.8 47.8
17:20 1013 29.91 843 24.89 15.9 60.6 63 8.9 48
17:25 1013 29.91 843 24.89 16.1 60.9 63 9.1 48.3
17:30 1013 29.91 843 24.89 16.2 61.1 63 9.3 48.7
17:35 1013 29.91 843 24.89 15.9 60.7 63 9 48.2
17:40 1013 29.91 843 24.89 16 60.8 61 8.6 47.5
17:45 1013 29.91 843 24.89 16.6 61.8 60 8.7 47.7
17:50 1013 29.91 843 24.89 17.1 62.7 57 8.5 47.2
17:55 1013 29.91 843 24.89 16.7 62 59 8.7 47.7
18:00 1014 29.94 843 24.89 16.3 61.4 58 8.1 46.6
18:05 1013 29.91 843 24.89 16.2 61.1 60 8.5 47.3
18:10 1013 29.91 843 24.89 16 60.8 61 8.6 47.5
18:15 1013 29.91 843 24.89 16.3 61.3 60 8.6 47.4
18:20 1013 29.91 843 24.89 16.6 61.8 59 8.5 47.4
18:25 1014 29.94 843 24.89 16.6 61.8 58 8.5 47.2
18:30 1014 29.94 843 24.89 16.7 62.1 57 8.3 47
18:35 1014 29.94 843 24.89 16.2 61.1 59 8.1 46.6
18:40 1014 29.94 843 24.89 15.9 60.6 58 7.8 46
18:45 1014 29.94 843 24.89 15.9 60.7 58 7.9 46.2
18:50 1014 29.94 843 24.89 15.8 60.4 60 8 46.5
18:55 1014 29.94 843 24.89 15.6 60 61 8.1 46.7
19:00 1014 29.94 843 24.89 15.5 59.8 62 8.2 46.8
19:05 1014 29.94 843 24.89 15.3 59.5 63 8.3 47
19:10 1014 29.94 843 24.89 15.1 59.1 64 8.4 47
19:15 1014 29.94 843 24.89 14.8 58.7 65 8.3 47
19:20 1014 29.94 843 24.89 14.6 58.4 65 8.3 46.9
19:25 1014 29.94 843 24.89 14.5 58 65 8 46.4
19:30 1014 29.94 843 24.89 14.4 57.9 65 7.9 46.2
19:35 1014 29.94 843 24.89 14.3 57.8 65 8 46.3
19:40 1014 29.94 843 24.89 14.2 57.5 67 8.1 46.6
19:45 1014 29.94 843 24.89 14 57.1 68 8.1 46.7
19:50 1014 29.94 843 24.89 13.9 57 68 8.1 46.6
19:55 1014 29.94 843 24.89 13.8 56.9 69 8.2 46.8
20:00 1014 29.94 843 24.89 13.8 56.8 68 8 46.5
20:05 1014 29.94 843 24.89 13.8 56.8 68 8.1 46.5
20:10 1014 29.94 843 24.89 13.8 56.8 67 7.8 46
20:15 1014 29.94 844 24.92 13.7 56.6 67 7.8 46
20:20 1014 29.94 844 24.92 13.7 56.7 66 7.6 45.7
20:25 1014 29.94 844 24.92 13.7 56.6 67 7.7 45.8
20:30 1014 29.94 844 24.92 13.5 56.2 68 7.7 45.9
20:35 1014 29.94 844 24.92 13.3 56 69 7.7 45.9
20:40 1015 29.97 844 24.92 13.1 55.6 71 8 46.3
20:45 1015 29.97 844 24.92 12.8 55.1 70 7.5 45.5
20:50 1015 29.97 844 24.92 12.6 54.6 71 7.5 45.4
20:55 1015 29.97 844 24.92 12.3 54.1 72 7.4 45.3
21:00 1015 29.97 844 24.92 12.2 54 72 7.3 45.1
21:05 1015 29.97 844 24.92 12.2 54 71 7.2 44.9
21:10 1015 29.97 844 24.92 12.4 54.3 69 6.9 44.5
21:15 1015 29.97 844 24.92 12.5 54.5 70 7.3 45.1
21:20 1015 29.97 844 24.92 12.4 54.3 70 7.1 44.8
21:25 1015 29.97 844 24.92 12.4 54.3 73 7.7 45.9
21:30 1015 29.97 844 24.92 12.1 53.8 74 7.7 45.8
21:35 1015 29.97 844 24.92 11.8 53.2 75 7.5 45.5
21:40 1015 29.97 844 24.92 11.5 52.7 76 7.5 45.4
21:45 1015 29.97 844 24.92 11.3 52.3 77 7.4 45.3
21:50 1015 29.97 844 24.92 11.2 52.2 76 7.2 45
21:55 1015 29.97 844 24.92 11.2 52.2 75 7 44.6
22:00 1015 29.97 844 24.92 11.4 52.4 73 6.8 44.2
22:05 1015 29.97 844 24.92 11.6 52.8 72 6.7 44.1
22:10 1015 29.97 844 24.92 11.7 53 73 7 44.6
22:15 1015 29.97 844 24.92 11.1 51.9 77 7.2 44.9
22:20 1015 29.97 844 24.92 10.8 51.4 76 6.7 44.1
22:25 1015 29.97 844 24.92 10.9 51.7 74 6.6 43.8
22:30 1015 29.97 844 24.92 11.1 52 74 6.6 43.9
22:35 1015 29.97 844 24.92 11.1 52.1 72 6.2 43.2
22:40 1015 29.97 844 24.92 11.2 52.2 71 6.2 43.2
22:45 1015 29.97 845 24.95 11.3 52.3 70 6.1 43
22:50 1015 29.97 845 24.95 11.3 52.3 68 5.6 42.1
22:55 1015 29.97 845 24.95 11.4 52.5 69 6 42.8
23:00 1015 29.97 845 24.95 11.2 52.2 72 6.4 43.5
23:05 1015 29.97 845 24.95 11.1 51.9 68 5.4 41.8
23:10 1015 29.97 844 24.92 11.4 52.6 67 5.6 42.1
23:15 1015 29.97 844 24.92 11.6 52.9 66 5.6 42.1
23:20 1015 29.97 844 24.92 11.3 52.4 69 5.9 42.6
23:25 1015 29.97 844 24.92 11.3 52.3 64 4.7 40.5
23:30 1015 29.97 844 24.92 11.8 53.2 64 5.2 41.3
23:35 1015 29.97 844 24.92 11.6 52.9 63 4.7 40.5
23:40 1015 29.97 844 24.92 11.7 53 59 4.1 39.4
23:45 1015 29.97 844 24.92 12.1 53.7 60 4.6 40.3
23:50 1015 29.97 844 24.92 12.1 53.7 62 5 41.1
23:55 1015 29.97 845 24.95 11.8 53.3 65 5.5 42
24:00 1015 29.97 845 24.95 11.4 52.5 67 5.6 42